Time,TemperatureF,DewpointF,PressureIn,WindDirection,WindDirectionDegrees,WindSpeedMPH,WindSpeedGustMPH,Humidity,HourlyPrecipIn,Conditions,Clouds,dailyrainin,SolarRadiationWatts/m^2,SoftwareType,DateUTC
2013-02-28 00:15:00,13.6,6.5,31.09,ESE,102,0.0,1.0,73,0.00,CLR,SKC,0.00,0.0,WeatherDisplay:10.37,2013-02-28 07:15:00,
2013-02-28 00:45:00,13.4,6.4,31.08,ESE,102,0.0,2.0,73,0.00,CLR,SKC,0.00,0.0,WeatherDisplay:10.37,2013-02-28 07:45:00,
2013-02-28 01:15:00,13.7,6.0,31.09,ESE,102,1.0,2.0,71,0.00,CLR,SKC,0.00,0.0,WeatherDisplay:10.37,2013-02-28 08:15:00,
2013-02-28 01:45:00,13.3,5.9,31.10,ESE,102,1.0,2.0,72,0.00,CLR,SKC,0.00,0.0,WeatherDisplay:10.37,2013-02-28 08:45:00,
2013-02-28 02:15:00,12.4,5.4,31.08,ESE,102,0.0,2.0,73,0.00,CLR,SKC,0.00,0.0,WeatherDisplay:10.37,2013-02-28 09:15:00,
2013-02-28 02:45:00,12.2,6.1,31.09,ESE,102,0.0,1.0,76,0.00,CLR,SKC,0.00,0.0,WeatherDisplay:10.37,2013-02-28 09:45:00,
2013-02-28 03:15:00,11.9,5.5,31.08,ESE,102,1.0,2.0,75,0.00,CLR,SKC,0.00,0.0,WeatherDisplay:10.37,2013-02-28 10:15:00,
2013-02-28 03:45:00,11.8,5.4,31.08,ESE,102,0.0,3.0,75,0.00,CLR,SKC,0.00,0.0,WeatherDisplay:10.37,2013-02-28 10:45:00,
2013-02-28 04:15:00,12.2,5.7,31.06,ESE,102,0.0,0.0,75,0.00,CLR,SKC,0.00,0.0,WeatherDisplay:10.37,2013-02-28 11:15:00,
2013-02-28 04:45:00,10.4,4.7,31.07,ESE,102,1.0,1.0,77,0.00,CLR,SKC,0.00,0.0,WeatherDisplay:10.37,2013-02-28 11:45:00,
2013-02-28 05:15:00,9.9,3.8,31.08,ESE,102,0.0,1.0,76,0.00,CLR,SKC,0.00,0.0,WeatherDisplay:10.37,2013-02-28 12:15:00,
2013-02-28 05:44:00,10.9,4.5,31.09,ESE,102,2.0,3.0,75,0.00,CLR,SKC,0.00,0.0,WeatherDisplay:10.37,2013-02-28 12:44:00,
2013-02-28 06:15:00,10.5,4.2,31.08,ESE,102,0.0,1.0,75,0.00,CLR,SKC,0.00,0.0,WeatherDisplay:10.37,2013-02-28 13:15:00,
2013-02-28 06:45:00,10.5,4.7,31.08,ESE,102,0.0,0.0,77,0.00,OVC,SKC,0.00,0.0,WeatherDisplay:10.37,2013-02-28 13:45:00,
2013-02-28 07:15:00,9.9,3.9,31.08,ESE,102,0.0,1.0,76,0.00,CLR,SKC,0.00,16.0,WeatherDisplay:10.37,2013-02-28 14:15:00,
2013-02-28 07:45:00,10.9,4.9,31.10,ESE,102,0.0,1.0,76,0.00,CLR,SKC,0.00,79.0,WeatherDisplay:10.37,2013-02-28 14:45:00,
2013-02-28 08:15:00,18.1,10.3,31.10,ESE,102,0.0,0.0,71,0.00,CLR,SKC,0.00,179.0,WeatherDisplay:10.37,2013-02-28 15:15:00,
2013-02-28 08:45:00,18.7,9.9,31.11,ESE,102,0.0,2.0,68,0.00,CLR,SKC,0.00,346.0,WeatherDisplay:10.37,2013-02-28 15:45:00,
2013-02-28 09:15:00,18.4,8.6,31.11,ESE,102,0.0,1.0,65,0.00,CLR,SKC,0.00,394.0,WeatherDisplay:10.37,2013-02-28 16:15:00,
2013-02-28 09:45:00,19.6,9.4,31.11,ESE,102,1.0,3.0,64,0.00,CLR,SKC,0.00,490.0,WeatherDisplay:10.37,2013-02-28 16:45:00,
2013-02-28 10:15:00,23.2,11.0,31.11,East,100,1.0,3.0,59,0.00,CLR,SKC,0.00,555.0,WeatherDisplay:10.37,2013-02-28 17:15:00,
2013-02-28 10:45:00,23.7,10.7,31.13,North,9,1.0,3.0,57,0.00,CLR,SKC,0.00,475.0,WeatherDisplay:10.37,2013-02-28 17:45:00,
2013-02-28 11:15:00,26.7,12.7,31.12,North,351,2.0,3.0,55,0.00,CLR,SKC,0.00,689.0,WeatherDisplay:10.37,2013-02-28 18:15:00,
2013-02-28 11:45:00,29.3,12.0,31.13,NW,315,1.0,3.0,48,0.00,CLR,SKC,0.00,722.0,WeatherDisplay:10.37,2013-02-28 18:45:00,
2013-02-28 12:15:00,29.4,13.0,31.11,NNW,340,0.0,3.0,50,0.00,CLR,SKC,0.00,726.0,WeatherDisplay:10.37,2013-02-28 19:15:00,
2013-02-28 12:45:00,30.6,13.2,31.09,NW,307,2.0,4.0,48,0.00,CLR,SKC,0.00,729.0,WeatherDisplay:10.37,2013-02-28 19:45:00,
2013-02-28 13:15:00,32.3,14.3,31.09,WNW,303,2.0,4.0,47,0.00,CLR,SKC,0.00,853.0,WeatherDisplay:10.37,2013-02-28 20:15:00,
2013-02-28 13:45:00,32.6,15.5,31.08,NW,311,1.0,3.0,49,0.00,CLR,SKC,0.00,679.0,WeatherDisplay:10.37,2013-02-28 20:45:00,
2013-02-28 14:15:00,33.3,15.7,31.08,NNW,338,1.0,3.0,48,0.00,CLR,SKC,0.00,777.0,WeatherDisplay:10.37,2013-02-28 21:15:00,
2013-02-28 14:45:00,35.5,16.8,31.07,NW,306,3.0,5.0,46,0.00,CLR,SKC,0.00,628.0,WeatherDisplay:10.37,2013-02-28 21:45:00,
2013-02-28 15:15:00,37.0,18.1,31.07,NNW,330,3.0,4.0,46,0.00,CLR,SKC,0.00,724.0,WeatherDisplay:10.37,2013-02-28 22:15:00,
2013-02-28 15:45:00,36.4,18.0,31.06,NNW,333,1.0,4.0,47,0.00,CLR,SKC,0.00,448.0,WeatherDisplay:10.37,2013-02-28 22:45:00,
2013-02-28 16:15:00,36.4,18.5,31.06,NW,322,1.0,3.0,48,0.00,CLR,SKC,0.00,339.0,WeatherDisplay:10.37,2013-02-28 23:15:00,
2013-02-28 16:45:00,36.5,18.1,31.06,NW,304,2.0,4.0,47,0.00,CLR,SKC,0.00,237.0,WeatherDisplay:10.37,2013-02-28 23:45:00,
2013-02-28 17:15:00,35.6,19.2,31.06,NW,314,2.0,3.0,51,0.00,SCT,SKC,0.00,65.0,WeatherDisplay:10.37,2013-03-01 00:15:00,
2013-02-28 17:45:00,36.1,19.7,31.05,SE,142,1.0,3.0,51,0.00,SCT,SKC,0.00,32.0,WeatherDisplay:10.37,2013-03-01 00:45:00,
2013-02-28 18:15:00,35.1,19.2,31.07,SSE,157,0.0,1.0,52,0.00,OVC,SKC,0.00,5.0,WeatherDisplay:10.37,2013-03-01 01:15:00,
2013-02-28 18:45:00,31.7,19.0,31.06,SSE,157,0.0,0.0,59,0.00,OVC,SKC,0.00,0.0,WeatherDisplay:10.37,2013-03-01 01:45:00,
2013-02-28 19:15:00,30.9,17.9,31.07,SSE,157,0.0,1.0,58,0.00,CLR,SKC,0.00,0.0,WeatherDisplay:10.37,2013-03-01 02:15:00,
2013-02-28 19:45:00,30.3,17.3,31.07,SSE,157,0.0,1.0,58,0.00,CLR,SKC,0.00,0.0,WeatherDisplay:10.37,2013-03-01 02:45:00,
2013-02-28 20:15:00,31.0,16.7,31.07,SSE,157,0.0,1.0,55,0.00,CLR,SKC,0.00,0.0,WeatherDisplay:10.37,2013-03-01 03:15:00,
2013-02-28 20:45:00,28.7,16.2,31.08,SSE,157,0.0,2.0,59,0.00,CLR,SKC,0.00,0.0,WeatherDisplay:10.37,2013-03-01 03:45:00,
2013-02-28 21:15:00,29.3,17.9,31.08,SSE,157,0.0,2.0,62,0.00,CLR,SKC,0.00,0.0,WeatherDisplay:10.37,2013-03-01 04:15:00,
2013-02-28 21:45:00,30.6,19.5,31.08,SSE,157,0.0,1.0,63,0.00,CLR,SKC,0.00,0.0,WeatherDisplay:10.37,2013-03-01 04:45:00,
2013-02-28 22:15:00,31.7,19.7,31.07,SSE,157,0.0,1.0,61,0.00,CLR,SKC,0.00,0.0,WeatherDisplay:10.37,2013-03-01 05:15:00,
2013-02-28 22:45:00,30.7,19.6,31.08,SSE,157,0.0,1.0,63,0.00,CLR,SKC,0.00,0.0,WeatherDisplay:10.37,2013-03-01 05:45:00,
2013-02-28 23:15:00,31.1,19.5,31.08,SSE,157,0.0,2.0,62,0.00,CLR,SKC,0.00,0.0,WeatherDisplay:10.37,2013-03-01 06:15:00,
2013-02-28 23:45:00,31.2,20.0,31.07,SSE,157,0.0,2.0,63,0.00,CLR,SKC,0.00,0.0,WeatherDisplay:10.37,2013-03-01 06:45:00,